logo
App data

Rage Runner

This fast, fun and challenging sci-fi game is truly like no other 3D racer, it will make you cry JUST ONE MORE TRY! Race through beautiful procedurally generated 3D space-scapes or a set of 13 hand-crafted challenges that will put your skills to the test.
Store | Hub | SteamDB | Site
Developer: Hypercane Studios Publisher: Plug In Digital
Genre: Action, Casual, Indie, Racing, Simulation
Languages: English, French, Dutch, Japanese
Tags: Racing (25), Indie (23), Action (23), Casual (22), Simulation (20), Sci-fi (5)
Category: Single-player, Steam Achievements, Full controller support, Steam Trading Cards, Steam Workshop, Stats, Steam Leaderboards, Includes level editor
Release date: May 16, 2014
Price: $4.99
Owners: 0 .. 20,000
Followers: 158
Peak concurrent players yesterday: 1
Playtime total: 05:06 (average) 05:42 (median)

Steam Spy is still in beta, so expect major bugs.

Owners data:

Access restricted.

This feature is only available to users with special access rights. Sorry.

If you want to proceed, you need to register or log in first and then back Steam Spy on Patreon. Look for Indie or Pro pledge.

Don't forget to use the same email as on Steam Spy!

Audience in 2 weeks:

Access restricted.

This feature is only available to users with special access rights. Sorry.

If you want to proceed, you need to register or log in first and then back Steam Spy on Patreon. Look for Indie or Pro pledge.

Don't forget to use the same email as on Steam Spy!

Peak daily concurrent players:

CCU data courtesy of SteamDB. Used with permission.

Hourly concurrent players:

Daily Twitch stats:

Hourly Twitch stats:

Followers over time

Access restricted.

This feature is only available to users with special access rights. Sorry.

If you want to proceed, you need to register or log in first and then back Steam Spy on Patreon. Look for Indie or Pro pledge.

Don't forget to use the same email as on Steam Spy!

Views for top 50 videos on YouTube for this game:

Games similar to this one:

# Game Release date
Price
Score rank
(Userscore / Metascore)
Owners
Players
Playtime (Median)
1 Hustle Cat Mar 16, 2016 $19.99N/A (N/A)50,000 .. 100,0000%00:00 (00:00)
2 Hyposphere May 5, 2016 $2.99N/A (N/A)200,000 .. 500,00014.29%04:59 (03:10)
3 Burst Mar 14, 2016 N/AN/A (N/A)50,000 .. 100,0000%00:00 (00:00)
4 King's Guard TD Jun 8, 2016 $2.99N/A (N/A)100,000 .. 200,0000%00:00 (00:00)
5 [the Sequence] Mar 30, 2016 $1.99N/A (N/A)0 .. 20,0000%00:00 (00:00)
6 hackmud Sep 22, 2016 $19.99N/A (N/A)50,000 .. 100,0000%00:00 (00:00)
7 Forgotten, Not Lost - A Kinetic Novel Apr 1, 2016 $1.99N/A (N/A)20,000 .. 50,0000%00:00 (00:00)
8 Autumn Sep 23, 2014 $2.99N/A (N/A)100,000 .. 200,0000%00:00 (00:00)
9 Sky to Fly: Soulless Leviathan Jul 22, 2016 $3.99N/A (N/A)20,000 .. 50,0000%00:00 (00:00)
10 Magma Tsunami Jun 1, 2016 $0.99N/A (N/A)200,000 .. 500,0000%00:00 (00:00)
11 Melting Hearts: Our Love Will Grow 2 Apr 29, 2016 N/AN/A (N/A)20,000 .. 50,0000%00:00 (00:00)
12 Frog Climbers Oct 6, 2016 $6.99N/A (N/A)20,000 .. 50,0000%00:00 (00:00)
13 Love in the Glen Jun 8, 2016 $5.99N/A (N/A)20,000 .. 50,0000%00:00 (00:00)
14 Caravanserail Mar 10, 2016 $2.99N/A (N/A)0 .. 20,0000%00:00 (00:00)
15 One Last Chance Apr 7, 2016 $2.49N/A (N/A)20,000 .. 50,0000%00:00 (00:00)
16 Mind Games Mar 4, 2016 $2.99N/A (N/A)0 .. 20,0000%00:00 (00:00)
17 Reptilian Rebellion Aug 7, 2016 $2.99N/A (N/A)50,000 .. 100,0000%00:00 (00:00)
18 Where are my Internets? Dec 16, 2016 $2.99N/A (N/A)50,000 .. 100,0000%00:00 (00:00)
19 Hide and Secret Treasure of the Ages Jun 17, 2016 $4.99N/A (N/A)0 .. 20,0000%00:00 (00:00)
20 Carrie's Order Up! Sep 13, 2016 $2.99N/A (N/A)0 .. 20,0000%00:00 (00:00)
21 12 Labours of Hercules V: Kids of Hellas (Platinum Edition) Jun 17, 2016 $2.99N/A (N/A)20,000 .. 50,0000%00:00 (00:00)
22 Turbo Pug 3D Sep 20, 2016 $1.99N/A (N/A)200,000 .. 500,0000%00:00 (00:00)
23 Beeftacular Aug 26, 2016 $2.99N/A (N/A)0 .. 20,0000%00:00 (00:00)
24 Archimedes Oct 6, 2016 $1.99N/A (N/A)20,000 .. 50,0000%00:00 (00:00)
25 ConflictCraft Dec 8, 2016 $2.99N/A (N/A)20,000 .. 50,0000%00:00 (00:00)
26 Kombine Oct 14, 2016 $0.99N/A (N/A)0 .. 20,0000%00:00 (00:00)
27 Clock Simulator Jul 20, 2016 $0.99N/A (N/A)20,000 .. 50,0000%00:00 (00:00)
28 GO AWAY, THERE'S KUMIS OVER THERE! Oct 28, 2016 $0.99N/A (N/A)50,000 .. 100,0000%00:00 (00:00)
29 Optika Aug 26, 2016 $4.99N/A (N/A)0 .. 20,0000%00:00 (00:00)
30 The Survey Oct 27, 2016 $4.99N/A (N/A)0 .. 20,0000%00:00 (00:00)
31 Won't You Be My Laser? Sep 2, 2016 $0.99N/A (N/A)0 .. 20,0000%00:00 (00:00)
32 Color Syndrome Aug 1, 2016 $0.99N/A (N/A)50,000 .. 100,0000%00:00 (00:00)
33 Football Blitz Jan 4, 2017 N/AN/A (N/A)0 .. 20,0000%00:00 (00:00)
34 Totally Unbalanced Jul 29, 2016 FreeN/A (N/A)100,000 .. 200,0000%00:00 (00:00)
35 Quantum Rush Champions Dec 4, 2014 $9.99N/A (N/A)20,000 .. 50,0000%00:00 (00:00)
36 12 Labours of Hercules Mar 23, 2015 $2.99N/A (N/A)100,000 .. 200,0000%00:00 (00:00)
37 Laserlife Sep 22, 2015 $9.99N/A (N/A)20,000 .. 50,0000%00:00 (00:00)
38 Bob Was Hungry Aug 19, 2015 $9.99N/A (N/A)50,000 .. 100,0000%00:00 (00:00)
39 SinaRun Oct 26, 2015 $2.99N/A (N/A)20,000 .. 50,0000%00:00 (00:00)
40 Pixel Puzzles 2: Birds Feb 20, 2015 $4.99N/A (N/A)200,000 .. 500,0000%00:00 (00:00)
41 Sinister City Oct 20, 2014 $0.49N/A (N/A)100,000 .. 200,0000%00:00 (00:00)
42 Stay Alight Mar 2, 2015 $3.99N/A (N/A)50,000 .. 100,0000%00:00 (00:00)
43 Vampires: Guide Them to Safety! Oct 22, 2014 $4.99N/A (N/A)0 .. 20,0000%00:00 (00:00)
44 Astro Emporia Feb 2, 2015 $0.99N/A (N/A)20,000 .. 50,0000%00:00 (00:00)
45 The Jackbox Party Pack Nov 26, 2014 $24.99N/A (N/A)200,000 .. 500,0000%00:00 (00:00)
46 Streets of Chaos Jan 23, 2015 N/AN/A (N/A)100,000 .. 200,0000%00:00 (00:00)
47 1931: Scheherazade at the Library of Pergamum Mar 26, 2015 $14.99N/A (N/A)0 .. 20,0000%00:00 (00:00)
48 Bloop Reloaded Feb 6, 2015 FreeN/A (N/A)100,000 .. 200,0000%00:00 (00:00)
49 Steam and Metal Feb 9, 2015 $4.99N/A (N/A)0 .. 20,0000%00:00 (00:00)
50 A Good Snowman Is Hard To Build Feb 25, 2015 $9.99N/A (N/A)20,000 .. 50,0000%00:00 (00:00)
51 Marble Duel: Sphere-Matching Tactical Fantasy Nov 12, 2015 $14.99N/A (N/A)50,000 .. 100,0000%00:00 (00:00)
52 Space Hotel Jan 4, 2017 $1.99N/A (N/A)0 .. 20,0000%00:00 (00:00)
53 Winexy Jan 13, 2017 $0.49N/A (N/A)20,000 .. 50,0000%00:00 (00:00)
54 Griptape Backbone May 5, 2017 FreeN/A (N/A)0 .. 20,0000%00:00 (00:00)
55 Ninja Stealth 2 Jan 30, 2017 $0.49N/A (N/A)20,000 .. 50,0000%00:00 (00:00)
56 Think To Die 3 Mar 27, 2017 $4.99N/A (N/A)0 .. 20,0000%00:00 (00:00)
57 Neon Prism Nov 18, 2016 $4.99N/A (N/A)50,000 .. 100,0000%00:00 (00:00)
58 iREC Jan 16, 2017 FreeN/A (N/A)50,000 .. 100,0000%00:00 (00:00)
59 Pester Jan 25, 2013 $0.99N/A (N/A)100,000 .. 200,0000%00:00 (00:00)
60 Industry Transporters Aug 31, 2015 $9.99N/A (N/A)0 .. 20,0000%00:00 (00:00)
61 Drizzlepath Mar 12, 2015 $1.99N/A (N/A)0 .. 20,0000%00:00 (00:00)
62 Space Drifters 2D Mar 28, 2016 $0.99N/A (N/A)20,000 .. 50,0000%00:00 (00:00)
63 Earthtongue Apr 27, 2015 $4.99N/A (N/A)50,000 .. 100,0000%00:00 (00:00)
64 Fate Tectonics Sep 9, 2015 $4.99N/A (N/A)20,000 .. 50,0000%00:00 (00:00)
65 The Reject Demon: Toko Chapter 0 — Prelude May 8, 2015 $4.99N/A (N/A)20,000 .. 50,0000%00:00 (00:00)
66 Koala Kids Jun 22, 2015 $0.99N/A (N/A)20,000 .. 50,0000%00:00 (00:00)
67 Cursed Sight Aug 3, 2015 $4.99N/A (N/A)0 .. 20,0000%00:00 (00:00)
68 Star Chronicles: Delta Quadrant Jul 7, 2015 $0.99N/A (N/A)200,000 .. 500,0000%00:00 (00:00)
69 Egg Returns Home May 5, 2015 $0.99N/A (N/A)20,000 .. 50,0000%00:00 (00:00)
70 Job the Leprechaun Jul 31, 2015 $2.99N/A (N/A)20,000 .. 50,0000%00:00 (00:00)
71 Beat Da Beat Mar 10, 2016 $1.99N/A (N/A)0 .. 20,0000%00:00 (00:00)
72 Racecraft Mar 4, 2016 FreeN/A (N/A)20,000 .. 50,0000%00:00 (00:00)
73 Power of Love Jul 21, 2015 $0.99N/A (N/A)20,000 .. 50,0000%00:00 (00:00)
74 Terraform May 8, 2015 $2.99N/A (N/A)0 .. 20,0000%00:00 (00:00)
75 Way of Gold and Steel Aug 17, 2015 $8.99N/A (N/A)0 .. 20,0000%00:00 (00:00)
76 Asphyxia Aug 4, 2015 $5.99N/A (N/A)20,000 .. 50,0000%00:00 (00:00)
77 Tennis in the Face Nov 18, 2015 $4.99N/A (N/A)0 .. 20,0000%00:00 (00:00)
78 Alpha Runner Sep 2, 2015 $0.99N/A (N/A)100,000 .. 200,0000%00:00 (00:00)
79 Backgammon Blitz Nov 12, 2015 N/AN/A (N/A)0 .. 20,0000%00:00 (00:00)
80 In Between Aug 21, 2015 $3.59N/A (N/A/68%)50,000 .. 100,0000%00:00 (00:00)
81 12 Labours of Hercules IV: Mother Nature (Platinum Edition) Dec 25, 2015 $2.99N/A (N/A)20,000 .. 50,0000%00:00 (00:00)
82 Robot vs Birds Zombies Jul 23, 2015 $0.99N/A (N/A)500,000 .. 1,000,0000%00:00 (00:00)
83 Without Within 2 Nov 9, 2015 $4.99N/A (N/A)0 .. 20,0000%00:00 (00:00)
84 Collisions Jul 28, 2015 $1.99N/A (N/A)20,000 .. 50,0000%00:00 (00:00)
85 Anode Oct 5, 2015 $3.99N/A (N/A)20,000 .. 50,0000%00:00 (00:00)
86 Army of Pixels Oct 29, 2015 $4.99N/A (N/A)0 .. 20,0000%00:00 (00:00)
87 Lift It Jan 20, 2017 $4.99N/A (N/A)50,000 .. 100,0000%00:00 (00:00)
88 The Deletion Jul 30, 2015 $1.99N/A (N/A)20,000 .. 50,0000%00:00 (00:00)
89 Wanda - A Beautiful Apocalypse Jun 3, 2016 $1.99N/A (N/A)100,000 .. 200,0000%00:00 (00:00)
90 Labyrinth Simulator Sep 21, 2015 $4.99N/A (N/A)0 .. 20,0000%00:00 (00:00)
91 Sentinel 4: Dark Star Aug 13, 2015 $6.99N/A (N/A)0 .. 20,0000%00:00 (00:00)
92 Dance Magic Feb 15, 2016 $9.99N/A (N/A)0 .. 20,0000%00:00 (00:00)
93 Herding Dog Dec 25, 2015 $1.99N/A (N/A)0 .. 20,0000%00:00 (00:00)
94 Zipple World Jan 19, 2016 $4.99N/A (N/A)0 .. 20,0000%00:00 (00:00)
95 Swapperoo Dec 18, 2015 $4.99N/A (N/A)0 .. 20,0000%00:00 (00:00)
96 Broken Dreams Feb 19, 2016 $1.99N/A (N/A)50,000 .. 100,0000%00:00 (00:00)
97 Loot Hound Nov 17, 2015 $2.99N/A (N/A)0 .. 20,0000%00:00 (00:00)
98 Sophie's Curse Mar 16, 2016 $1.69N/A (N/A)50,000 .. 100,0000%00:00 (00:00)
99 Cyber Team Manager Jan 18, 2016 $4.99N/A (N/A)0 .. 20,0000%00:00 (00:00)
100 Night Blights Apr 15, 2016 $6.99N/A (N/A)0 .. 20,0000%00:00 (00:00)
101 BAD END Nov 25, 2015 $2.99N/A (N/A)0 .. 20,0000%00:00 (00:00)
102 XCavalypse Jun 6, 2016 $5.99N/A (N/A)0 .. 20,0000%00:00 (00:00)
103 Rescue Team 5 Sep 30, 2015 $3.99N/A (N/A)0 .. 20,0000%00:00 (00:00)
104 RePete Mar 9, 2016 $1.99N/A (N/A)0 .. 20,0000%00:00 (00:00)
105 SquareCells Dec 7, 2015 $2.99N/A (N/A)50,000 .. 100,0000%00:00 (00:00)
106 Star Sky Oct 23, 2015 $3.99N/A (N/A)0 .. 20,0000%00:00 (00:00)
107 Recursion Deluxe Feb 12, 2016 $4.99N/A (N/A)0 .. 20,0000%00:00 (00:00)
108 The Last NightMary - A Lenda do Cabeça de Cuia Nov 2, 2015 $3.99N/A (N/A)50,000 .. 100,0000%00:00 (00:00)
109 Goodnight Butcher Dec 18, 2015 $1.99N/A (N/A)20,000 .. 50,0000%00:00 (00:00)
110 Paranormal State: Poison Spring Apr 9, 2014 $9.99N/A (N/A)50,000 .. 100,0000%00:00 (00:00)
111 Luxor Evolved Mar 1, 2012 $9.99N/A (N/A)50,000 .. 100,0000%00:00 (00:00)
112 Tribloos 2 Jan 30, 2014 $4.99N/A (N/A)100,000 .. 200,0000%00:00 (00:00)
113 Highborn Feb 19, 2013 $1.99N/A (N/A)0 .. 20,0000%00:00 (00:00)
114 On Rusty Trails Jun 13, 2016 $12.99N/A (N/A/77%)20,000 .. 50,0000%00:00 (00:00)
115 Oozi: Earth Adventure Dec 5, 2013 $4.99N/A (N/A/66%)50,000 .. 100,0000%00:00 (00:00)
116 European Ship Simulator Nov 4, 2016 $19.99N/A (N/A)50,000 .. 100,0000%00:00 (00:00)
117 Particulars Nov 19, 2014 $5.99N/A (N/A/74%)0 .. 20,0000%00:00 (00:00)
118 Cyto Jul 10, 2014 $3.99N/A (N/A)20,000 .. 50,0000%00:00 (00:00)
119 Dead Man's Draw Feb 6, 2014 $6.99N/A (N/A)50,000 .. 100,0000%00:00 (00:00)
120 Cute Things Dying Violently Sep 2, 2015 $2.99N/A (N/A)0 .. 20,0000%00:00 (00:00)
121 Girls Like Robots Feb 14, 2014 $6.99N/A (N/A)100,000 .. 200,0000%00:00 (00:00)
122 GamersGoMakers Aug 8, 2014 $8.99N/A (N/A)20,000 .. 50,0000%00:00 (00:00)
123 Farm for your Life Jun 16, 2014 $9.99N/A (N/A)50,000 .. 100,0000%00:00 (00:00)
124 Axel & Pixel Oct 6, 2010 $4.99N/A (N/A)20,000 .. 50,0000%00:00 (00:00)
125 Grapple Mar 9, 2015 $6.99N/A (N/A)20,000 .. 50,0000%00:00 (00:00)
126 Governor of Poker 2 - Premium Edition Oct 11, 2010 $14.99N/A (N/A)0 .. 20,0000%00:00 (00:00)

Tags over time:

Access restricted.

This feature is only available to users with special access rights. Sorry.

If you want to proceed, you need to register or log in first and then back Steam Spy on Patreon. Look for Indie or Pro pledge.

Don't forget to use the same email as on Steam Spy!

Owners of this game also own:

Access restricted.

This feature is only available to users with special access rights. Sorry.

If you want to proceed, you need to register or log in first and then back Steam Spy on Patreon. Look for Indie or Pro pledge.

Don't forget to use the same email as on Steam Spy!

Playtime distribution:

Access restricted.

This feature is only available to users with special access rights. Sorry.

If you want to proceed, you need to register or log in first and then back Steam Spy on Patreon. Look for Indie or Pro pledge.

Don't forget to use the same email as on Steam Spy!

Playtime (2 weeks):

Access restricted.

This feature is only available to users with special access rights. Sorry.

If you want to proceed, you need to register or log in first and then back Steam Spy on Patreon. Look for Indie or Pro pledge.

Don't forget to use the same email as on Steam Spy!

User reviews:

Login required.

Please register or log in to see this information.